sensor_id;sensor_type;location;lat;lon;timestamp;P1;durP1;ratioP1;P2;durP2;ratioP2
52023;SDS011;38038;45.922;13.604;2022-10-10T00:00:36;12.25;;;10.02;;
52023;SDS011;38038;45.922;13.604;2022-10-10T00:03:03;10.93;;;9.93;;
52023;SDS011;38038;45.922;13.604;2022-10-10T00:05:29;11.43;;;10.73;;
52023;SDS011;38038;45.922;13.604;2022-10-10T00:07:55;10.48;;;9.90;;
52023;SDS011;38038;45.922;13.604;2022-10-10T00:10:21;10.85;;;10.25;;
52023;SDS011;38038;45.922;13.604;2022-10-10T00:12:47;10.57;;;9.98;;
52023;SDS011;38038;45.922;13.604;2022-10-10T00:15:13;11.30;;;10.45;;
52023;SDS011;38038;45.922;13.604;2022-10-10T00:17:40;10.27;;;9.77;;
52023;SDS011;38038;45.922;13.604;2022-10-10T00:20:08;10.43;;;9.82;;
52023;SDS011;38038;45.922;13.604;2022-10-10T00:22:39;10.27;;;9.68;;
52023;SDS011;38038;45.922;13.604;2022-10-10T00:25:06;10.32;;;9.73;;
52023;SDS011;38038;45.922;13.604;2022-10-10T00:27:33;11.90;;;11.20;;
52023;SDS011;38038;45.922;13.604;2022-10-10T00:29:59;10.93;;;10.32;;
52023;SDS011;38038;45.922;13.604;2022-10-10T00:32:25;11.55;;;10.95;;
52023;SDS011;38038;45.922;13.604;2022-10-10T00:34:51;10.30;;;9.70;;
52023;SDS011;38038;45.922;13.604;2022-10-10T00:37:17;11.00;;;10.07;;
52023;SDS011;38038;45.922;13.604;2022-10-10T00:39:43;10.30;;;9.70;;
52023;SDS011;38038;45.922;13.604;2022-10-10T00:42:12;10.55;;;9.95;;
52023;SDS011;38038;45.922;13.604;2022-10-10T00:44:39;11.25;;;10.65;;
52023;SDS011;38038;45.922;13.604;2022-10-10T00:47:06;11.20;;;10.50;;
52023;SDS011;38038;45.922;13.604;2022-10-10T00:49:32;10.65;;;10.05;;
52023;SDS011;38038;45.922;13.604;2022-10-10T00:52:02;9.20;;;8.70;;
52023;SDS011;38038;45.922;13.604;2022-10-10T00:54:28;12.57;;;11.63;;
52023;SDS011;38038;45.922;13.604;2022-10-10T00:57:03;11.40;;;10.68;;
52023;SDS011;38038;45.922;13.604;2022-10-10T00:59:32;9.82;;;9.30;;
52023;SDS011;38038;45.922;13.604;2022-10-10T01:02:00;10.45;;;9.75;;
52023;SDS011;38038;45.922;13.604;2022-10-10T01:04:29;11.35;;;9.50;;
52023;SDS011;38038;45.922;13.604;2022-10-10T01:06:59;10.82;;;10.13;;
52023;SDS011;38038;45.922;13.604;2022-10-10T01:09:27;10.20;;;9.60;;
52023;SDS011;38038;45.922;13.604;2022-10-10T01:11:54;9.77;;;9.20;;
52023;SDS011;38038;45.922;13.604;2022-10-10T01:14:37;10.23;;;9.52;;
52023;SDS011;38038;45.922;13.604;2022-10-10T01:17:18;10.30;;;9.60;;
52023;SDS011;38038;45.922;13.604;2022-10-10T01:25:30;11.07;;;10.13;;
52023;SDS011;38038;45.922;13.604;2022-10-10T01:30:54;10.90;;;10.20;;
52023;SDS011;38038;45.922;13.604;2022-10-10T01:33:36;10.60;;;10.00;;
52023;SDS011;38038;45.922;13.604;2022-10-10T01:36:20;10.93;;;10.32;;
52023;SDS011;38038;45.922;13.604;2022-10-10T01:39:01;10.40;;;9.70;;
52023;SDS011;38038;45.922;13.604;2022-10-10T01:41:46;10.15;;;9.57;;
52023;SDS011;38038;45.922;13.604;2022-10-10T01:44:20;10.57;;;9.88;;
52023;SDS011;38038;45.922;13.604;2022-10-10T01:46:46;10.30;;;9.70;;
52023;SDS011;38038;45.922;13.604;2022-10-10T01:49:12;10.60;;;10.02;;
52023;SDS011;38038;45.922;13.604;2022-10-10T01:51:57;10.35;;;9.73;;
52023;SDS011;38038;45.922;13.604;2022-10-10T01:57:38;9.90;;;9.15;;
52023;SDS011;38038;45.922;13.604;2022-10-10T02:02:41;10.00;;;9.48;;
52023;SDS011;38038;45.922;13.604;2022-10-10T02:10:43;10.88;;;10.27;;
52023;SDS011;38038;45.922;13.604;2022-10-10T02:13:13;10.07;;;9.48;;
52023;SDS011;38038;45.922;13.604;2022-10-10T02:15:44;10.40;;;9.80;;
52023;SDS011;38038;45.922;13.604;2022-10-10T02:18:16;10.40;;;9.80;;
52023;SDS011;38038;45.922;13.604;2022-10-10T02:20:45;9.85;;;9.35;;
52023;SDS011;38038;45.922;13.604;2022-10-10T02:23:13;9.85;;;9.25;;
52023;SDS011;38038;45.922;13.604;2022-10-10T02:25:41;9.43;;;8.93;;
52023;SDS011;38038;45.922;13.604;2022-10-10T02:28:12;9.60;;;9.07;;
52023;SDS011;38038;45.922;13.604;2022-10-10T02:30:54;11.25;;;10.65;;
52023;SDS011;38038;45.922;13.604;2022-10-10T02:33:30;9.88;;;9.32;;
52023;SDS011;38038;45.922;13.604;2022-10-10T02:36:05;10.73;;;10.00;;
52023;SDS011;38038;45.922;13.604;2022-10-10T02:38:31;10.57;;;9.98;;
52023;SDS011;38038;45.922;13.604;2022-10-10T02:40:57;10.38;;;9.68;;
52023;SDS011;38038;45.922;13.604;2022-10-10T02:43:28;10.45;;;9.88;;
52023;SDS011;38038;45.922;13.604;2022-10-10T02:46:00;10.35;;;9.65;;
52023;SDS011;38038;45.922;13.604;2022-10-10T02:48:28;10.50;;;9.90;;
52023;SDS011;38038;45.922;13.604;2022-10-10T02:50:54;10.40;;;9.80;;
52023;SDS011;38038;45.922;13.604;2022-10-10T02:53:20;10.27;;;9.60;;
52023;SDS011;38038;45.922;13.604;2022-10-10T02:55:46;10.88;;;10.27;;
52023;SDS011;38038;45.922;13.604;2022-10-10T02:58:12;13.02;;;9.73;;
52023;SDS011;38038;45.922;13.604;2022-10-10T03:00:38;10.80;;;10.20;;
52023;SDS011;38038;45.922;13.604;2022-10-10T03:03:04;10.30;;;9.77;;
52023;SDS011;38038;45.922;13.604;2022-10-10T03:05:30;10.20;;;9.65;;
52023;SDS011;38038;45.922;13.604;2022-10-10T03:07:55;10.05;;;9.35;;
52023;SDS011;38038;45.922;13.604;2022-10-10T03:10:21;10.23;;;9.57;;
52023;SDS011;38038;45.922;13.604;2022-10-10T03:12:47;10.70;;;10.00;;
52023;SDS011;38038;45.922;13.604;2022-10-10T03:15:12;11.48;;;10.88;;
52023;SDS011;38038;45.922;13.604;2022-10-10T03:17:38;11.60;;;10.98;;
52023;SDS011;38038;45.922;13.604;2022-10-10T03:20:04;11.38;;;10.68;;
52023;SDS011;38038;45.922;13.604;2022-10-10T03:22:30;11.20;;;10.50;;
52023;SDS011;38038;45.922;13.604;2022-10-10T03:24:56;11.90;;;11.23;;
52023;SDS011;38038;45.922;13.604;2022-10-10T03:27:22;11.77;;;11.05;;
52023;SDS011;38038;45.922;13.604;2022-10-10T03:29:48;12.52;;;11.50;;
52023;SDS011;38038;45.922;13.604;2022-10-10T03:32:13;11.60;;;10.90;;
52023;SDS011;38038;45.922;13.604;2022-10-10T03:34:39;11.57;;;10.98;;
52023;SDS011;38038;45.922;13.604;2022-10-10T03:37:05;12.48;;;11.68;;
52023;SDS011;38038;45.922;13.604;2022-10-10T03:39:30;11.40;;;10.80;;
52023;SDS011;38038;45.922;13.604;2022-10-10T03:41:56;10.55;;;9.95;;
52023;SDS011;38038;45.922;13.604;2022-10-10T03:44:22;11.32;;;10.70;;
52023;SDS011;38038;45.922;13.604;2022-10-10T03:46:48;10.55;;;10.00;;
52023;SDS011;38038;45.922;13.604;2022-10-10T03:49:13;11.07;;;10.25;;
52023;SDS011;38038;45.922;13.604;2022-10-10T03:51:39;10.75;;;10.15;;
52023;SDS011;38038;45.922;13.604;2022-10-10T03:54:05;9.93;;;9.40;;
52023;SDS011;38038;45.922;13.604;2022-10-10T03:56:31;9.95;;;9.45;;
52023;SDS011;38038;45.922;13.604;2022-10-10T03:58:56;10.93;;;10.15;;
52023;SDS011;38038;45.922;13.604;2022-10-10T04:01:25;10.35;;;9.45;;
52023;SDS011;38038;45.922;13.604;2022-10-10T04:03:51;10.40;;;9.80;;
52023;SDS011;38038;45.922;13.604;2022-10-10T04:06:17;10.88;;;10.10;;
52023;SDS011;38038;45.922;13.604;2022-10-10T04:08:43;9.55;;;8.90;;
52023;SDS011;38038;45.922;13.604;2022-10-10T04:11:09;9.80;;;9.30;;
52023;SDS011;38038;45.922;13.604;2022-10-10T04:13:34;9.65;;;9.05;;
52023;SDS011;38038;45.922;13.604;2022-10-10T04:16:00;10.50;;;9.82;;
52023;SDS011;38038;45.922;13.604;2022-10-10T04:18:26;10.43;;;9.82;;
52023;SDS011;38038;45.922;13.604;2022-10-10T04:20:51;9.20;;;8.70;;
52023;SDS011;38038;45.922;13.604;2022-10-10T04:23:17;10.52;;;9.93;;
52023;SDS011;38038;45.922;13.604;2022-10-10T04:25:43;8.98;;;8.48;;
52023;SDS011;38038;45.922;13.604;2022-10-10T04:28:13;9.80;;;9.23;;
52023;SDS011;38038;45.922;13.604;2022-10-10T04:30:39;10.02;;;9.32;;
52023;SDS011;38038;45.922;13.604;2022-10-10T04:33:05;9.10;;;8.60;;
52023;SDS011;38038;45.922;13.604;2022-10-10T04:35:31;9.52;;;8.93;;
52023;SDS011;38038;45.922;13.604;2022-10-10T04:37:57;9.80;;;9.30;;
52023;SDS011;38038;45.922;13.604;2022-10-10T04:40:23;9.98;;;9.48;;
52023;SDS011;38038;45.922;13.604;2022-10-10T04:42:48;10.30;;;9.68;;
52023;SDS011;38038;45.922;13.604;2022-10-10T04:45:14;10.20;;;9.60;;
52023;SDS011;38038;45.922;13.604;2022-10-10T04:47:40;10.82;;;9.82;;
52023;SDS011;38038;45.922;13.604;2022-10-10T04:50:06;13.02;;;12.32;;
52023;SDS011;38038;45.922;13.604;2022-10-10T04:52:32;12.30;;;11.27;;
52023;SDS011;38038;45.922;13.604;2022-10-10T04:54:57;12.25;;;11.45;;
52023;SDS011;38038;45.922;13.604;2022-10-10T04:57:23;11.52;;;10.82;;
52023;SDS011;38038;45.922;13.604;2022-10-10T04:59:49;14.85;;;14.05;;
52023;SDS011;38038;45.922;13.604;2022-10-10T05:02:14;40.85;;;38.60;;
52023;SDS011;38038;45.922;13.604;2022-10-10T05:04:40;12.02;;;11.43;;
52023;SDS011;38038;45.922;13.604;2022-10-10T05:07:06;11.13;;;10.52;;
52023;SDS011;38038;45.922;13.604;2022-10-10T05:09:31;11.00;;;10.35;;
52023;SDS011;38038;45.922;13.604;2022-10-10T05:11:58;11.07;;;10.40;;
52023;SDS011;38038;45.922;13.604;2022-10-10T05:14:24;11.50;;;10.65;;
52023;SDS011;38038;45.922;13.604;2022-10-10T05:16:50;10.95;;;10.15;;
52023;SDS011;38038;45.922;13.604;2022-10-10T05:19:15;10.40;;;9.80;;
52023;SDS011;38038;45.922;13.604;2022-10-10T05:21:41;10.38;;;9.77;;
52023;SDS011;38038;45.922;13.604;2022-10-10T05:24:07;10.70;;;10.10;;
52023;SDS011;38038;45.922;13.604;2022-10-10T05:26:32;10.57;;;10.07;;
52023;SDS011;38038;45.922;13.604;2022-10-10T05:28:58;11.00;;;10.40;;
52023;SDS011;38038;45.922;13.604;2022-10-10T05:31:25;10.52;;;9.93;;
52023;SDS011;38038;45.922;13.604;2022-10-10T05:33:51;11.52;;;10.85;;
52023;SDS011;38038;45.922;13.604;2022-10-10T05:36:17;10.85;;;10.25;;
52023;SDS011;38038;45.922;13.604;2022-10-10T05:38:43;12.13;;;11.45;;
52023;SDS011;38038;45.922;13.604;2022-10-10T05:41:08;11.23;;;10.63;;
52023;SDS011;38038;45.922;13.604;2022-10-10T05:43:34;11.23;;;10.63;;
52023;SDS011;38038;45.922;13.604;2022-10-10T05:46:00;10.80;;;10.20;;
52023;SDS011;38038;45.922;13.604;2022-10-10T05:48:26;10.02;;;9.50;;
52023;SDS011;38038;45.922;13.604;2022-10-10T05:50:55;9.90;;;9.32;;
52023;SDS011;38038;45.922;13.604;2022-10-10T05:53:22;10.75;;;9.48;;
52023;SDS011;38038;45.922;13.604;2022-10-10T05:55:49;10.95;;;10.32;;
52023;SDS011;38038;45.922;13.604;2022-10-10T05:58:14;10.70;;;10.00;;
52023;SDS011;38038;45.922;13.604;2022-10-10T06:00:41;11.05;;;10.43;;
52023;SDS011;38038;45.922;13.604;2022-10-10T06:03:08;11.40;;;10.80;;
52023;SDS011;38038;45.922;13.604;2022-10-10T06:05:38;10.05;;;9.55;;
52023;SDS011;38038;45.922;13.604;2022-10-10T06:08:15;10.77;;;9.75;;
52023;SDS011;38038;45.922;13.604;2022-10-10T06:10:41;9.73;;;9.23;;
52023;SDS011;38038;45.922;13.604;2022-10-10T06:13:09;9.52;;;9.02;;
52023;SDS011;38038;45.922;13.604;2022-10-10T06:15:36;9.80;;;9.23;;
52023;SDS011;38038;45.922;13.604;2022-10-10T06:18:02;10.55;;;9.95;;
52023;SDS011;38038;45.922;13.604;2022-10-10T06:20:29;10.30;;;9.75;;
52023;SDS011;38038;45.922;13.604;2022-10-10T06:22:54;10.38;;;9.68;;
52023;SDS011;38038;45.922;13.604;2022-10-10T06:25:20;9.48;;;8.77;;
52023;SDS011;38038;45.922;13.604;2022-10-10T06:27:46;9.75;;;9.00;;
52023;SDS011;38038;45.922;13.604;2022-10-10T06:30:11;10.10;;;9.45;;
52023;SDS011;38038;45.922;13.604;2022-10-10T06:32:37;10.10;;;9.50;;
52023;SDS011;38038;45.922;13.604;2022-10-10T06:35:03;10.15;;;9.35;;
52023;SDS011;38038;45.922;13.604;2022-10-10T06:37:29;9.88;;;9.27;;
52023;SDS011;38038;45.922;13.604;2022-10-10T06:39:55;10.85;;;10.13;;
52023;SDS011;38038;45.922;13.604;2022-10-10T06:42:21;10.15;;;9.55;;
52023;SDS011;38038;45.922;13.604;2022-10-10T06:44:47;9.93;;;9.43;;
52023;SDS011;38038;45.922;13.604;2022-10-10T06:47:13;10.52;;;9.77;;
52023;SDS011;38038;45.922;13.604;2022-10-10T06:49:39;10.30;;;9.10;;
52023;SDS011;38038;45.922;13.604;2022-10-10T06:52:04;9.90;;;9.40;;
52023;SDS011;38038;45.922;13.604;2022-10-10T06:54:30;10.07;;;9.50;;
52023;SDS011;38038;45.922;13.604;2022-10-10T06:56:56;11.43;;;10.63;;
52023;SDS011;38038;45.922;13.604;2022-10-10T06:59:21;10.27;;;9.57;;
52023;SDS011;38038;45.922;13.604;2022-10-10T07:01:47;12.35;;;11.45;;
52023;SDS011;38038;45.922;13.604;2022-10-10T07:04:13;10.45;;;9.85;;
52023;SDS011;38038;45.922;13.604;2022-10-10T07:06:39;10.45;;;9.80;;
52023;SDS011;38038;45.922;13.604;2022-10-10T07:09:04;11.48;;;10.77;;
52023;SDS011;38038;45.922;13.604;2022-10-10T07:11:30;13.68;;;12.70;;
52023;SDS011;38038;45.922;13.604;2022-10-10T07:13:56;11.07;;;10.45;;
52023;SDS011;38038;45.922;13.604;2022-10-10T07:16:22;11.35;;;10.75;;
52023;SDS011;38038;45.922;13.604;2022-10-10T07:18:48;15.15;;;14.35;;
52023;SDS011;38038;45.922;13.604;2022-10-10T07:21:14;11.60;;;11.00;;
52023;SDS011;38038;45.922;13.604;2022-10-10T07:23:40;13.82;;;12.95;;
52023;SDS011;38038;45.922;13.604;2022-10-10T07:26:07;12.02;;;11.32;;
52023;SDS011;38038;45.922;13.604;2022-10-10T07:28:36;11.60;;;11.00;;
52023;SDS011;38038;45.922;13.604;2022-10-10T07:31:03;11.32;;;10.68;;
52023;SDS011;38038;45.922;13.604;2022-10-10T07:33:31;11.43;;;10.65;;
52023;SDS011;38038;45.922;13.604;2022-10-10T07:36:07;9.98;;;9.38;;
52023;SDS011;38038;45.922;13.604;2022-10-10T07:38:34;11.63;;;10.88;;
52023;SDS011;38038;45.922;13.604;2022-10-10T07:41:03;12.27;;;11.57;;
52023;SDS011;38038;45.922;13.604;2022-10-10T07:43:33;11.73;;;10.95;;
52023;SDS011;38038;45.922;13.604;2022-10-10T07:46:00;11.52;;;10.75;;
52023;SDS011;38038;45.922;13.604;2022-10-10T07:48:26;11.57;;;10.98;;
52023;SDS011;38038;45.922;13.604;2022-10-10T07:50:51;10.60;;;9.93;;
52023;SDS011;38038;45.922;13.604;2022-10-10T07:53:17;10.57;;;9.90;;
52023;SDS011;38038;45.922;13.604;2022-10-10T07:55:43;11.45;;;10.80;;
52023;SDS011;38038;45.922;13.604;2022-10-10T07:58:10;12.07;;;11.48;;
52023;SDS011;38038;45.922;13.604;2022-10-10T08:00:36;11.13;;;10.52;;
52023;SDS011;38038;45.922;13.604;2022-10-10T08:03:06;10.20;;;9.63;;
52023;SDS011;38038;45.922;13.604;2022-10-10T08:05:32;9.85;;;9.32;;
52023;SDS011;38038;45.922;13.604;2022-10-10T08:07:58;10.10;;;9.60;;
52023;SDS011;38038;45.922;13.604;2022-10-10T08:10:24;9.70;;;9.05;;
52023;SDS011;38038;45.922;13.604;2022-10-10T08:12:52;11.02;;;10.43;;
52023;SDS011;38038;45.922;13.604;2022-10-10T08:15:18;12.40;;;11.25;;
52023;SDS011;38038;45.922;13.604;2022-10-10T08:17:44;10.40;;;9.80;;
52023;SDS011;38038;45.922;13.604;2022-10-10T08:20:09;11.70;;;11.00;;
52023;SDS011;38038;45.922;13.604;2022-10-10T08:22:35;10.30;;;9.77;;
52023;SDS011;38038;45.922;13.604;2022-10-10T08:25:01;10.75;;;10.05;;
52023;SDS011;38038;45.922;13.604;2022-10-10T08:27:27;11.02;;;10.32;;
52023;SDS011;38038;45.922;13.604;2022-10-10T08:29:52;11.38;;;10.25;;
52023;SDS011;38038;45.922;13.604;2022-10-10T08:32:18;11.07;;;10.27;;
52023;SDS011;38038;45.922;13.604;2022-10-10T08:34:44;9.65;;;9.15;;
52023;SDS011;38038;45.922;13.604;2022-10-10T08:37:09;10.45;;;9.85;;
52023;SDS011;38038;45.922;13.604;2022-10-10T08:39:35;9.60;;;8.85;;
52023;SDS011;38038;45.922;13.604;2022-10-10T08:42:01;10.30;;;9.70;;
52023;SDS011;38038;45.922;13.604;2022-10-10T08:49:50;10.00;;;9.32;;
52023;SDS011;38038;45.922;13.604;2022-10-10T08:52:42;9.13;;;8.63;;
52023;SDS011;38038;45.922;13.604;2022-10-10T08:55:16;11.68;;;10.43;;
52023;SDS011;38038;45.922;13.604;2022-10-10T08:57:49;10.90;;;9.88;;
52023;SDS011;38038;45.922;13.604;2022-10-10T09:00:20;10.68;;;9.75;;
52023;SDS011;38038;45.922;13.604;2022-10-10T09:02:55;10.27;;;9.68;;
52023;SDS011;38038;45.922;13.604;2022-10-10T09:19:05;10.48;;;9.77;;
52023;SDS011;38038;45.922;13.604;2022-10-10T09:21:58;11.98;;;11.25;;
52023;SDS011;38038;45.922;13.604;2022-10-10T09:24:31;12.82;;;12.02;;
52023;SDS011;38038;45.922;13.604;2022-10-10T09:27:05;13.57;;;12.65;;
52023;SDS011;38038;45.922;13.604;2022-10-10T09:32:12;12.38;;;11.40;;
52023;SDS011;38038;45.922;13.604;2022-10-10T09:34:40;12.35;;;11.45;;
52023;SDS011;38038;45.922;13.604;2022-10-10T09:37:13;11.80;;;10.98;;
52023;SDS011;38038;45.922;13.604;2022-10-10T09:39:46;11.63;;;10.93;;
52023;SDS011;38038;45.922;13.604;2022-10-10T09:42:37;9.93;;;9.32;;
52023;SDS011;38038;45.922;13.604;2022-10-10T09:45:24;12.02;;;11.40;;
52023;SDS011;38038;45.922;13.604;2022-10-10T09:47:57;11.23;;;10.52;;
52023;SDS011;38038;45.922;13.604;2022-10-10T09:50:22;10.65;;;10.05;;
52023;SDS011;38038;45.922;13.604;2022-10-10T09:52:49;11.35;;;10.65;;
52023;SDS011;38038;45.922;13.604;2022-10-10T13:01:44;11.50;;;10.80;;
52023;SDS011;38038;45.922;13.604;2022-10-10T13:04:17;13.23;;;12.52;;
52023;SDS011;38038;45.922;13.604;2022-10-10T13:06:44;15.43;;;14.63;;
52023;SDS011;38038;45.922;13.604;2022-10-10T13:11:50;14.38;;;13.60;;
52023;SDS011;38038;45.922;13.604;2022-10-10T13:14:22;13.55;;;12.75;;
52023;SDS011;38038;45.922;13.604;2022-10-10T13:16:49;15.50;;;14.70;;
52023;SDS011;38038;45.922;13.604;2022-10-10T13:19:21;11.95;;;11.02;;
52023;SDS011;38038;45.922;13.604;2022-10-10T13:21:50;14.35;;;13.52;;
52023;SDS011;38038;45.922;13.604;2022-10-10T13:24:18;13.02;;;12.27;;
52023;SDS011;38038;45.922;13.604;2022-10-10T13:26:50;17.88;;;16.85;;
52023;SDS011;38038;45.922;13.604;2022-10-10T13:32:14;15.68;;;14.15;;
52023;SDS011;38038;45.922;13.604;2022-10-10T13:37:24;17.38;;;16.42;;
52023;SDS011;38038;45.922;13.604;2022-10-10T13:39:51;14.10;;;13.25;;
52023;SDS011;38038;45.922;13.604;2022-10-10T13:42:28;14.02;;;13.18;;
52023;SDS011;38038;45.922;13.604;2022-10-10T13:55:47;10.90;;;10.20;;
52023;SDS011;38038;45.922;13.604;2022-10-10T13:58:12;17.70;;;16.63;;
52023;SDS011;38038;45.922;13.604;2022-10-10T14:00:39;14.40;;;13.45;;
52023;SDS011;38038;45.922;13.604;2022-10-10T14:03:12;13.85;;;12.95;;
52023;SDS011;38038;45.922;13.604;2022-10-10T14:05:42;12.45;;;11.75;;
52023;SDS011;38038;45.922;13.604;2022-10-10T14:08:16;12.02;;;11.07;;
52023;SDS011;38038;45.922;13.604;2022-10-10T14:11:45;10.43;;;9.75;;
52023;SDS011;38038;45.922;13.604;2022-10-10T14:13:43;13.80;;;12.95;;
52023;SDS011;38038;45.922;13.604;2022-10-10T14:18:42;12.60;;;11.63;;
52023;SDS011;38038;45.922;13.604;2022-10-10T14:21:09;11.18;;;10.48;;
52023;SDS011;38038;45.922;13.604;2022-10-10T14:23:35;10.23;;;9.55;;
52023;SDS011;38038;45.922;13.604;2022-10-10T14:26:02;10.90;;;10.27;;
52023;SDS011;38038;45.922;13.604;2022-10-10T14:28:30;12.68;;;11.90;;
52023;SDS011;38038;45.922;13.604;2022-10-10T14:30:57;12.40;;;11.60;;
52023;SDS011;38038;45.922;13.604;2022-10-10T14:33:24;11.30;;;10.70;;
52023;SDS011;38038;45.922;13.604;2022-10-10T14:35:50;12.45;;;11.75;;
52023;SDS011;38038;45.922;13.604;2022-10-10T14:38:18;19.08;;;18.13;;
52023;SDS011;38038;45.922;13.604;2022-10-10T14:40:44;14.05;;;13.25;;
52023;SDS011;38038;45.922;13.604;2022-10-10T14:43:12;14.02;;;13.13;;
52023;SDS011;38038;45.922;13.604;2022-10-10T14:45:37;14.98;;;14.18;;
52023;SDS011;38038;45.922;13.604;2022-10-10T14:48:03;13.02;;;12.23;;
52023;SDS011;38038;45.922;13.604;2022-10-10T14:50:31;12.52;;;11.77;;
52023;SDS011;38038;45.922;13.604;2022-10-10T14:53:01;17.10;;;16.20;;
52023;SDS011;38038;45.922;13.604;2022-10-10T14:55:27;18.65;;;17.65;;
52023;SDS011;38038;45.922;13.604;2022-10-10T14:57:53;13.57;;;12.88;;
52023;SDS011;38038;45.922;13.604;2022-10-10T15:00:20;13.68;;;12.88;;
52023;SDS011;38038;45.922;13.604;2022-10-10T15:02:47;15.32;;;13.68;;
52023;SDS011;38038;45.922;13.604;2022-10-10T15:05:13;13.80;;;12.95;;
52023;SDS011;38038;45.922;13.604;2022-10-10T15:07:39;14.82;;;13.93;;
52023;SDS011;38038;45.922;13.604;2022-10-10T15:10:05;14.55;;;13.82;;
52023;SDS011;38038;45.922;13.604;2022-10-10T15:12:33;11.95;;;11.15;;
52023;SDS011;38038;45.922;13.604;2022-10-10T15:15:00;12.95;;;12.02;;
52023;SDS011;38038;45.922;13.604;2022-10-10T15:17:26;11.52;;;10.82;;
52023;SDS011;38038;45.922;13.604;2022-10-10T15:19:54;12.07;;;11.35;;
52023;SDS011;38038;45.922;13.604;2022-10-10T15:22:20;11.18;;;10.52;;
52023;SDS011;38038;45.922;13.604;2022-10-10T15:24:45;15.63;;;14.63;;
52023;SDS011;38038;45.922;13.604;2022-10-10T15:27:11;17.10;;;16.20;;
52023;SDS011;38038;45.922;13.604;2022-10-10T15:29:37;10.75;;;10.00;;
52023;SDS011;38038;45.922;13.604;2022-10-10T15:32:04;12.05;;;11.32;;
52023;SDS011;38038;45.922;13.604;2022-10-10T15:34:29;17.40;;;16.48;;
52023;SDS011;38038;45.922;13.604;2022-10-10T15:36:55;14.88;;;14.07;;
52023;SDS011;38038;45.922;13.604;2022-10-10T15:39:21;12.95;;;12.25;;
52023;SDS011;38038;45.922;13.604;2022-10-10T15:41:46;16.90;;;15.70;;
52023;SDS011;38038;45.922;13.604;2022-10-10T15:44:13;15.30;;;14.20;;
52023;SDS011;38038;45.922;13.604;2022-10-10T15:46:41;14.55;;;13.60;;
52023;SDS011;38038;45.922;13.604;2022-10-10T15:49:08;16.30;;;15.32;;
52023;SDS011;38038;45.922;13.604;2022-10-10T15:51:33;18.35;;;17.33;;
52023;SDS011;38038;45.922;13.604;2022-10-10T15:53:59;13.77;;;13.00;;
52023;SDS011;38038;45.922;13.604;2022-10-10T15:56:26;12.30;;;11.55;;
52023;SDS011;38038;45.922;13.604;2022-10-10T15:58:58;11.07;;;10.43;;
52023;SDS011;38038;45.922;13.604;2022-10-10T16:01:25;10.70;;;9.88;;
52023;SDS011;38038;45.922;13.604;2022-10-10T16:03:52;12.23;;;11.23;;
52023;SDS011;38038;45.922;13.604;2022-10-10T16:06:18;11.38;;;10.57;;
52023;SDS011;38038;45.922;13.604;2022-10-10T16:08:45;11.27;;;10.57;;
52023;SDS011;38038;45.922;13.604;2022-10-10T16:11:15;10.07;;;9.50;;
52023;SDS011;38038;45.922;13.604;2022-10-10T16:13:45;11.55;;;10.82;;
52023;SDS011;38038;45.922;13.604;2022-10-10T16:16:16;10.52;;;9.82;;
52023;SDS011;38038;45.922;13.604;2022-10-10T16:18:43;10.32;;;9.73;;
52023;SDS011;38038;45.922;13.604;2022-10-10T16:21:11;13.68;;;10.75;;
52023;SDS011;38038;45.922;13.604;2022-10-10T16:23:43;13.40;;;12.20;;
52023;SDS011;38038;45.922;13.604;2022-10-10T16:26:13;13.57;;;11.93;;
52023;SDS011;38038;45.922;13.604;2022-10-10T16:28:39;11.38;;;10.48;;
52023;SDS011;38038;45.922;13.604;2022-10-10T16:31:05;12.50;;;11.60;;
52023;SDS011;38038;45.922;13.604;2022-10-10T16:33:33;13.20;;;12.25;;
52023;SDS011;38038;45.922;13.604;2022-10-10T16:36:00;13.27;;;12.38;;
52023;SDS011;38038;45.922;13.604;2022-10-10T16:38:31;14.00;;;13.10;;
52023;SDS011;38038;45.922;13.604;2022-10-10T16:41:00;14.15;;;12.95;;
52023;SDS011;38038;45.922;13.604;2022-10-10T16:43:29;12.85;;;11.95;;
52023;SDS011;38038;45.922;13.604;2022-10-10T16:45:54;11.00;;;10.25;;
52023;SDS011;38038;45.922;13.604;2022-10-10T18:36:55;19.55;;;18.35;;
52023;SDS011;38038;45.922;13.604;2022-10-10T18:39:21;19.15;;;17.88;;
52023;SDS011;38038;45.922;13.604;2022-10-10T18:41:47;23.55;;;22.20;;
52023;SDS011;38038;45.922;13.604;2022-10-10T18:44:14;27.45;;;25.25;;
52023;SDS011;38038;45.922;13.604;2022-10-10T18:46:41;16.40;;;15.00;;
52023;SDS011;38038;45.922;13.604;2022-10-10T18:49:07;20.75;;;19.45;;
52023;SDS011;38038;45.922;13.604;2022-10-10T18:51:34;17.35;;;16.35;;
52023;SDS011;38038;45.922;13.604;2022-10-10T18:54:02;18.10;;;16.85;;
52023;SDS011;38038;45.922;13.604;2022-10-10T18:56:31;20.58;;;19.33;;
52023;SDS011;38038;45.922;13.604;2022-10-10T18:58:59;22.60;;;21.08;;
52023;SDS011;38038;45.922;13.604;2022-10-10T19:01:27;17.92;;;16.77;;
52023;SDS011;38038;45.922;13.604;2022-10-10T19:03:54;19.85;;;18.55;;
52023;SDS011;38038;45.922;13.604;2022-10-10T19:06:21;19.77;;;18.58;;
52023;SDS011;38038;45.922;13.604;2022-10-10T19:08:48;15.77;;;14.85;;
52023;SDS011;38038;45.922;13.604;2022-10-10T19:11:19;15.48;;;14.48;;
52023;SDS011;38038;45.922;13.604;2022-10-10T19:13:48;15.60;;;14.65;;
52023;SDS011;38038;45.922;13.604;2022-10-10T19:16:14;16.25;;;14.65;;
52023;SDS011;38038;45.922;13.604;2022-10-10T19:18:40;16.52;;;15.30;;
52023;SDS011;38038;45.922;13.604;2022-10-10T19:21:06;17.05;;;16.05;;
52023;SDS011;38038;45.922;13.604;2022-10-10T19:23:34;20.55;;;19.42;;
52023;SDS011;38038;45.922;13.604;2022-10-10T19:26:00;22.00;;;20.63;;
52023;SDS011;38038;45.922;13.604;2022-10-10T19:28:28;22.90;;;21.58;;
52023;SDS011;38038;45.922;13.604;2022-10-10T19:30:54;26.70;;;25.25;;
52023;SDS011;38038;45.922;13.604;2022-10-10T19:33:19;21.25;;;20.08;;
52023;SDS011;38038;45.922;13.604;2022-10-10T19:35:45;22.63;;;21.33;;
52023;SDS011;38038;45.922;13.604;2022-10-10T19:38:11;18.88;;;17.65;;
52023;SDS011;38038;45.922;13.604;2022-10-10T19:40:46;18.70;;;17.40;;
52023;SDS011;38038;45.922;13.604;2022-10-10T19:43:13;17.20;;;16.08;;
52023;SDS011;38038;45.922;13.604;2022-10-10T19:45:40;16.27;;;15.27;;
52023;SDS011;38038;45.922;13.604;2022-10-10T19:48:07;18.52;;;17.30;;
52023;SDS011;38038;45.922;13.604;2022-10-10T19:50:33;18.38;;;17.17;;
52023;SDS011;38038;45.922;13.604;2022-10-10T19:53:01;17.67;;;16.58;;
52023;SDS011;38038;45.922;13.604;2022-10-10T19:55:27;17.30;;;16.15;;
52023;SDS011;38038;45.922;13.604;2022-10-10T19:57:53;17.48;;;16.02;;
52023;SDS011;38038;45.922;13.604;2022-10-10T20:00:18;16.58;;;15.52;;
52023;SDS011;38038;45.922;13.604;2022-10-10T20:02:44;17.05;;;16.05;;
52023;SDS011;38038;45.922;13.604;2022-10-10T20:05:10;16.38;;;15.13;;
52023;SDS011;38038;45.922;13.604;2022-10-10T20:07:35;17.15;;;15.50;;
52023;SDS011;38038;45.922;13.604;2022-10-10T20:10:01;15.60;;;14.55;;
52023;SDS011;38038;45.922;13.604;2022-10-10T20:12:28;17.75;;;16.40;;
52023;SDS011;38038;45.922;13.604;2022-10-10T20:14:54;17.15;;;16.15;;